Time;durP1;ratioP1;P1;durP2;ratioP2;P2;SDS_P1;SDS_P2;PMS_P1;PMS_P2;Temp;Humidity;BMP_temperature;BMP_pressure;BME280_temperature;BME280_humidity;BME280_pressure;Samples;Min_cycle;Max_cycle;Signal;HPM_P1;HPM_P2
2022/04/06 00:00:27;;;;;;;32.65;18.17;;;;;;;;;;5056704;28;20044;-27
2022/04/06 00:02:53;;;;;;;32.40;18.75;;;;;;;;;;5055285;28;20045;-28
2022/04/06 00:05:19;;;;;;;30.70;19.00;;;;;;;;;;5055313;28;20498;-28
2022/04/06 00:07:45;;;;;;;27.80;18.95;;;;;;;;;;5054163;28;20427;-27
2022/04/06 00:10:12;;;;;;;27.05;18.13;;;;;;;;;;5055995;28;20072;-27
2022/04/06 00:12:39;;;;;;;28.67;18.23;;;;;;;;;;5054530;28;20056;-27
2022/04/06 00:15:06;;;;;;;27.70;17.08;;;;;;;;;;5055048;28;20376;-28
2022/04/06 00:17:32;;;;;;;29.42;18.17;;;;;;;;;;5054934;28;20036;-26
2022/04/06 00:19:59;;;;;;;30.08;16.60;;;;;;;;;;5054280;28;20045;-27
2022/04/06 00:22:25;;;;;;;26.67;16.40;;;;;;;;;;5070706;28;20040;-27
2022/04/06 00:24:51;;;;;;;28.88;18.33;;;;;;;;;;5073001;28;20083;-27
2022/04/06 00:27:18;;;;;;;32.17;18.52;;;;;;;;;;5072025;28;20055;-28
2022/04/06 00:29:44;;;;;;;24.05;16.48;;;;;;;;;;5074278;28;20044;-28
2022/04/06 00:32:10;;;;;;;32.08;16.88;;;;;;;;;;5061414;28;20069;-27
2022/04/06 00:37:21;;;;;;;29.27;17.55;;;;;;;;;;5070899;28;20052;-29
2022/04/06 00:39:47;;;;;;;26.60;16.48;;;;;;;;;;5066861;28;20045;-28
2022/04/06 00:42:13;;;;;;;30.20;16.63;;;;;;;;;;5055475;28;20048;-28
2022/04/06 00:44:40;;;;;;;28.50;16.95;;;;;;;;;;5073329;28;20040;-28
2022/04/06 00:47:06;;;;;;;26.23;15.68;;;;;;;;;;5057690;28;20052;-29
2022/04/06 00:49:33;;;;;;;26.35;15.40;;;;;;;;;;5052912;28;20073;-28
2022/04/06 00:52:00;;;;;;;26.75;15.23;;;;;;;;;;5053370;28;20099;-31
2022/04/06 00:54:28;;;;;;;27.95;15.40;;;;;;;;;;5072347;28;20094;-31
2022/04/06 00:56:54;;;;;;;29.13;15.50;;;;;;;;;;5059937;28;20045;-31
2022/04/06 00:59:20;;;;;;;31.50;14.55;;;;;;;;;;5051758;28;20048;-32
2022/04/06 01:01:47;;;;;;;29.55;15.73;;;;;;;;;;5053615;28;20398;-33
2022/04/06 01:04:15;;;;;;;30.85;14.90;;;;;;;;;;5066306;28;20052;-32
2022/04/06 01:06:41;;;;;;;26.50;14.70;;;;;;;;;;5060741;28;20049;-32
2022/04/06 01:09:07;;;;;;;25.48;14.35;;;;;;;;;;5064074;28;20135;-32
2022/04/06 01:11:34;;;;;;;23.45;13.15;;;;;;;;;;5063110;28;20033;-32
2022/04/06 01:14:00;;;;;;;28.73;13.80;;;;;;;;;;5052844;28;20402;-32
2022/04/06 01:16:26;;;;;;;26.58;13.73;;;;;;;;;;5052314;28;20066;-32
2022/04/06 01:18:52;;;;;;;26.08;12.77;;;;;;;;;;5052591;28;20391;-32
2022/04/06 01:21:19;;;;;;;27.35;13.63;;;;;;;;;;5061841;28;20044;-33
2022/04/06 01:23:45;;;;;;;28.00;13.85;;;;;;;;;;5070417;28;20049;-31
2022/04/06 01:26:12;;;;;;;28.38;14.18;;;;;;;;;;5071270;28;20087;-31
2022/04/06 01:28:39;;;;;;;27.48;13.45;;;;;;;;;;5072333;28;20494;-32
2022/04/06 01:31:05;;;;;;;27.05;13.05;;;;;;;;;;5069815;28;20490;-33
2022/04/06 01:33:31;;;;;;;26.30;12.98;;;;;;;;;;5071483;28;20036;-31
2022/04/06 01:35:58;;;;;;;21.58;11.35;;;;;;;;;;5069307;28;20044;-33
2022/04/06 01:38:24;;;;;;;24.90;12.77;;;;;;;;;;5064072;28;20054;-31
2022/04/06 01:40:51;;;;;;;20.98;11.27;;;;;;;;;;5070774;28;20078;-31
2022/04/06 01:43:17;;;;;;;23.83;12.63;;;;;;;;;;5055980;28;20041;-31
2022/04/06 01:45:43;;;;;;;24.13;12.13;;;;;;;;;;5053366;28;20037;-31
2022/04/06 01:48:09;;;;;;;26.23;12.23;;;;;;;;;;5053273;28;20044;-32
2022/04/06 01:53:20;;;;;;;21.35;11.57;;;;;;;;;;5065191;28;20033;-33
2022/04/06 01:55:46;;;;;;;24.67;12.52;;;;;;;;;;5068540;28;20087;-31
2022/04/06 01:58:13;;;;;;;25.10;11.13;;;;;;;;;;5066271;28;20131;-32
2022/04/06 02:00:40;;;;;;;20.77;12.02;;;;;;;;;;5070162;28;20131;-31
2022/04/06 02:03:06;;;;;;;24.13;10.98;;;;;;;;;;5058676;28;20067;-32
2022/04/06 02:05:33;;;;;;;23.80;10.43;;;;;;;;;;5051988;28;20115;-31
2022/04/06 02:07:59;;;;;;;23.00;10.82;;;;;;;;;;5051870;28;20052;-30
2022/04/06 02:10:25;;;;;;;19.10;10.15;;;;;;;;;;5052231;28;20114;-31
2022/04/06 02:12:53;;;;;;;19.20;10.50;;;;;;;;;;5051427;28;20040;-33
2022/04/06 02:15:19;;;;;;;20.70;10.07;;;;;;;;;;5056663;28;20029;-31
2022/04/06 02:17:45;;;;;;;19.55;8.88;;;;;;;;;;5062786;28;20513;-32
2022/04/06 02:20:11;;;;;;;20.83;9.32;;;;;;;;;;5057588;28;20045;-32
2022/04/06 02:22:38;;;;;;;17.30;9.63;;;;;;;;;;5051817;28;20491;-31
2022/04/06 02:25:04;;;;;;;21.70;8.52;;;;;;;;;;5051957;28;20449;-31
2022/04/06 02:27:31;;;;;;;17.45;8.98;;;;;;;;;;5068938;28;20037;-31
2022/04/06 02:29:57;;;;;;;20.35;8.65;;;;;;;;;;5072158;28;20459;-32
2022/04/06 02:32:23;;;;;;;19.95;7.78;;;;;;;;;;5067689;28;20071;-30
2022/04/06 02:34:49;;;;;;;21.10;9.25;;;;;;;;;;5071339;28;20115;-31
2022/04/06 02:37:15;;;;;;;22.15;8.07;;;;;;;;;;5068585;28;20521;-31
2022/04/06 02:39:42;;;;;;;21.80;8.13;;;;;;;;;;5071612;28;20093;-30
2022/04/06 02:42:08;;;;;;;16.50;7.72;;;;;;;;;;5056640;28;20095;-31
2022/04/06 02:44:34;;;;;;;23.38;8.70;;;;;;;;;;5056148;28;20116;-33
2022/04/06 02:47:00;;;;;;;22.52;8.52;;;;;;;;;;5074333;28;20405;-32
2022/04/06 02:49:27;;;;;;;15.73;8.10;;;;;;;;;;5062673;28;20082;-33
2022/04/06 02:51:53;;;;;;;21.25;8.45;;;;;;;;;;5055835;28;20033;-34
2022/04/06 02:54:19;;;;;;;22.23;8.73;;;;;;;;;;5072819;28;20042;-33
2022/04/06 02:56:45;;;;;;;23.35;8.18;;;;;;;;;;5076026;28;20505;-32
2022/04/06 02:59:12;;;;;;;18.92;8.90;;;;;;;;;;5073744;28;20044;-33
2022/04/06 03:01:38;;;;;;;19.00;8.05;;;;;;;;;;5076395;28;20063;-32
2022/04/06 03:04:04;;;;;;;18.17;8.13;;;;;;;;;;5072833;28;20125;-31
2022/04/06 03:06:30;;;;;;;19.73;8.98;;;;;;;;;;5056864;28;20056;-31
2022/04/06 03:08:56;;;;;;;16.33;8.40;;;;;;;;;;5056359;28;20072;-33
2022/04/06 03:11:22;;;;;;;19.05;9.73;;;;;;;;;;5056434;28;20052;-31
2022/04/06 03:13:50;;;;;;;23.50;8.95;;;;;;;;;;5056340;28;20047;-35
2022/04/06 03:16:16;;;;;;;18.70;9.82;;;;;;;;;;5057582;28;20037;-34
2022/04/06 03:18:43;;;;;;;18.27;9.80;;;;;;;;;;5061239;28;20044;-33
2022/04/06 03:21:09;;;;;;;21.02;9.88;;;;;;;;;;5055193;28;20448;-33
2022/04/06 03:23:35;;;;;;;20.50;10.52;;;;;;;;;;5055658;28;20495;-31
2022/04/06 03:26:01;;;;;;;24.63;10.27;;;;;;;;;;5055675;28;20037;-36
2022/04/06 03:28:27;;;;;;;23.73;10.85;;;;;;;;;;5069473;28;20044;-33
2022/04/06 03:30:53;;;;;;;24.83;11.25;;;;;;;;;;5074596;28;20119;-33
2022/04/06 03:33:19;;;;;;;24.83;10.90;;;;;;;;;;5070141;28;20041;-33
2022/04/06 03:35:45;;;;;;;22.45;12.68;;;;;;;;;;5074361;28;20044;-33
2022/04/06 03:38:11;;;;;;;24.92;11.88;;;;;;;;;;5067330;28;20055;-33
2022/04/06 03:40:38;;;;;;;23.38;12.80;;;;;;;;;;5056031;28;20041;-33
2022/04/06 03:43:04;;;;;;;27.58;12.40;;;;;;;;;;5064901;28;20052;-33
2022/04/06 03:45:30;;;;;;;23.17;12.18;;;;;;;;;;5074835;28;20040;-34
2022/04/06 03:47:56;;;;;;;23.13;12.55;;;;;;;;;;5075109;28;20094;-33
2022/04/06 03:50:22;;;;;;;25.08;13.27;;;;;;;;;;5092688;28;20482;-32
2022/04/06 03:52:49;;;;;;;28.80;13.07;;;;;;;;;;5095257;28;20078;-31
2022/04/06 03:55:15;;;;;;;25.60;13.65;;;;;;;;;;5073818;28;20093;-32
2022/04/06 03:57:41;;;;;;;24.48;13.05;;;;;;;;;;5075127;28;20040;-32
2022/04/06 04:00:08;;;;;;;23.63;12.38;;;;;;;;;;5073689;28;20060;-33
2022/04/06 04:02:34;;;;;;;23.60;12.25;;;;;;;;;;5074266;28;20036;-31
2022/04/06 04:05:00;;;;;;;29.60;13.23;;;;;;;;;;5065985;28;20044;-34
2022/04/06 04:07:26;;;;;;;22.05;11.45;;;;;;;;;;5055199;28;20375;-33
2022/04/06 04:09:53;;;;;;;24.30;13.13;;;;;;;;;;5069982;28;20116;-31
2022/04/06 04:12:19;;;;;;;23.15;12.00;;;;;;;;;;5073463;28;20037;-28
2022/04/06 04:14:46;;;;;;;20.48;11.40;;;;;;;;;;5074884;28;20119;-29
2022/04/06 04:17:12;;;;;;;23.33;11.95;;;;;;;;;;5074157;28;20044;-28
2022/04/06 04:19:38;;;;;;;25.73;11.65;;;;;;;;;;5065017;28;20037;-30
2022/04/06 04:22:04;;;;;;;23.90;10.38;;;;;;;;;;5057708;28;20116;-28
2022/04/06 04:24:31;;;;;;;22.75;10.63;;;;;;;;;;5058802;28;20112;-27
2022/04/06 04:26:57;;;;;;;21.63;10.45;;;;;;;;;;5063138;28;20132;-28
2022/04/06 04:29:23;;;;;;;21.83;9.95;;;;;;;;;;5069493;28;20076;-29
2022/04/06 04:31:49;;;;;;;19.75;10.85;;;;;;;;;;5071410;28;20037;-28
2022/04/06 04:34:15;;;;;;;16.70;10.60;;;;;;;;;;5072297;28;20037;-28
2022/04/06 04:36:41;;;;;;;20.10;10.45;;;;;;;;;;5057280;28;20087;-28
2022/04/06 04:39:08;;;;;;;18.25;9.77;;;;;;;;;;5053333;28;20040;-28
2022/04/06 04:41:34;;;;;;;19.80;10.50;;;;;;;;;;5053518;28;20037;-28
2022/04/06 04:44:00;;;;;;;20.60;9.55;;;;;;;;;;5054187;28;20120;-29
2022/04/06 04:46:27;;;;;;;23.48;9.45;;;;;;;;;;5062013;28;20436;-28
2022/04/06 04:48:53;;;;;;;17.75;8.63;;;;;;;;;;5073737;28;20044;-33
2022/04/06 04:51:19;;;;;;;18.52;9.82;;;;;;;;;;5073716;28;20041;-33
2022/04/06 04:53:45;;;;;;;21.25;9.73;;;;;;;;;;5073708;28;20123;-31
2022/04/06 04:56:11;;;;;;;16.90;9.07;;;;;;;;;;5071645;28;20037;-31
2022/04/06 04:58:37;;;;;;;20.48;9.18;;;;;;;;;;5073448;28;20036;-28
2022/04/06 05:01:04;;;;;;;19.15;9.30;;;;;;;;;;5069390;28;20036;-29
2022/04/06 05:03:30;;;;;;;22.17;9.10;;;;;;;;;;5057148;28;20041;-28
2022/04/06 05:05:57;;;;;;;20.38;9.18;;;;;;;;;;5053133;28;20095;-28
2022/04/06 05:08:23;;;;;;;18.77;9.02;;;;;;;;;;5052622;28;20094;-27
2022/04/06 05:10:50;;;;;;;17.25;8.65;;;;;;;;;;5061244;28;20485;-28
2022/04/06 05:13:17;;;;;;;15.30;8.32;;;;;;;;;;5070908;28;20068;-28
2022/04/06 05:15:47;;;;;;;19.45;9.13;;;;;;;;;;5062806;28;20036;-34
2022/04/06 05:18:13;;;;;;;18.73;9.20;;;;;;;;;;5068535;28;20038;-28
2022/04/06 05:20:39;;;;;;;21.48;9.13;;;;;;;;;;5062575;28;20056;-29
2022/04/06 05:23:05;;;;;;;15.20;7.90;;;;;;;;;;5051309;28;20091;-30
2022/04/06 05:25:31;;;;;;;14.50;7.18;;;;;;;;;;5058012;28;20047;-30
2022/04/06 05:27:57;;;;;;;16.45;7.93;;;;;;;;;;5072069;28;20453;-29
2022/04/06 05:30:26;;;;;;;17.55;8.10;;;;;;;;;;5062660;28;20043;-28
2022/04/06 05:32:53;;;;;;;15.63;8.32;;;;;;;;;;5064101;28;20539;-29
2022/04/06 05:35:19;;;;;;;16.35;8.45;;;;;;;;;;5070093;28;20122;-33
2022/04/06 05:37:46;;;;;;;17.50;7.13;;;;;;;;;;5053179;28;20064;-32
2022/04/06 05:40:13;;;;;;;12.93;6.80;;;;;;;;;;5066469;28;20521;-28
2022/04/06 05:42:39;;;;;;;17.02;7.15;;;;;;;;;;5053510;28;20041;-28
2022/04/06 05:45:06;;;;;;;11.68;6.03;;;;;;;;;;5053161;28;20044;-28
2022/04/06 05:47:33;;;;;;;14.98;6.57;;;;;;;;;;5062293;28;20045;-32
2022/04/06 05:49:59;;;;;;;12.00;5.70;;;;;;;;;;5050862;28;20138;-30
2022/04/06 05:52:25;;;;;;;8.68;5.18;;;;;;;;;;5069856;28;20094;-32
2022/04/06 05:54:52;;;;;;;11.77;5.20;;;;;;;;;;5073597;28;20041;-31
2022/04/06 05:57:19;;;;;;;8.00;4.38;;;;;;;;;;5070701;28;20101;-29
2022/04/06 05:59:45;;;;;;;11.45;5.00;;;;;;;;;;5072313;28;20047;-31
2022/04/06 06:02:11;;;;;;;15.07;5.28;;;;;;;;;;5065468;28;20382;-29
2022/04/06 06:04:38;;;;;;;9.75;5.20;;;;;;;;;;5072296;28;20123;-29
2022/04/06 06:07:08;;;;;;;12.60;5.05;;;;;;;;;;5072359;28;20379;-28
2022/04/06 06:09:34;;;;;;;9.82;4.75;;;;;;;;;;5064598;28;20036;-29
2022/04/06 06:12:00;;;;;;;11.77;5.43;;;;;;;;;;5068303;28;20037;-30
2022/04/06 06:14:27;;;;;;;14.38;5.32;;;;;;;;;;5072073;28;20048;-28
2022/04/06 06:16:54;;;;;;;10.43;4.97;;;;;;;;;;5066856;28;20078;-28
2022/04/06 06:19:20;;;;;;;8.65;4.07;;;;;;;;;;5071516;28;20048;-29
2022/04/06 06:21:46;;;;;;;10.18;3.70;;;;;;;;;;5064583;28;20040;-30
2022/04/06 06:24:12;;;;;;;7.43;3.25;;;;;;;;;;5052212;28;20071;-32
2022/04/06 06:26:42;;;;;;;11.18;4.32;;;;;;;;;;5058055;28;20044;-27
2022/04/06 06:29:09;;;;;;;9.48;4.00;;;;;;;;;;5070219;28;20490;-28
2022/04/06 06:31:35;;;;;;;12.80;3.67;;;;;;;;;;5069491;28;20102;-28
2022/04/06 06:34:01;;;;;;;10.60;4.10;;;;;;;;;;5070860;28;20245;-27
2022/04/06 06:36:28;;;;;;;7.97;3.47;;;;;;;;;;5071105;28;20053;-28
2022/04/06 06:38:55;;;;;;;10.07;3.70;;;;;;;;;;5066219;28;20053;-28
2022/04/06 06:41:21;;;;;;;4.47;3.05;;;;;;;;;;5071147;28;20080;-27
2022/04/06 06:43:48;;;;;;;11.18;3.13;;;;;;;;;;5061211;28;20032;-28
2022/04/06 06:46:15;;;;;;;10.40;3.17;;;;;;;;;;5066461;28;20490;-28
2022/04/06 06:48:41;;;;;;;6.80;3.03;;;;;;;;;;5069239;28;20151;-28
2022/04/06 06:51:07;;;;;;;10.02;3.22;;;;;;;;;;5068310;28;20509;-30
2022/04/06 06:53:33;;;;;;;8.18;3.25;;;;;;;;;;5063765;28;20399;-28
2022/04/06 06:55:59;;;;;;;8.30;3.42;;;;;;;;;;5070662;28;20051;-27
2022/04/06 06:58:25;;;;;;;7.55;3.17;;;;;;;;;;5070399;28;20048;-28
2022/04/06 07:00:51;;;;;;;7.93;3.50;;;;;;;;;;5065099;28;20066;-30
2022/04/06 07:03:18;;;;;;;12.65;3.50;;;;;;;;;;5066037;28;20048;-30
2022/04/06 07:05:45;;;;;;;7.10;3.28;;;;;;;;;;5060020;28;20102;-29
2022/04/06 07:08:11;;;;;;;10.48;3.67;;;;;;;;;;5061301;28;20126;-27
2022/04/06 07:10:37;;;;;;;10.02;3.17;;;;;;;;;;5064846;28;20033;-27
2022/04/06 07:13:04;;;;;;;9.80;3.72;;;;;;;;;;5066072;28;20074;-26
2022/04/06 07:15:30;;;;;;;9.20;3.53;;;;;;;;;;5064335;28;20044;-28
2022/04/06 07:17:57;;;;;;;9.63;3.33;;;;;;;;;;5067300;28;20044;-27
2022/04/06 07:20:25;;;;;;;7.65;4.05;;;;;;;;;;5068225;28;20095;-27
2022/04/06 07:22:51;;;;;;;9.63;3.08;;;;;;;;;;5069455;28;20504;-29
2022/04/06 07:25:18;;;;;;;7.15;3.30;;;;;;;;;;5063137;28;20044;-28
2022/04/06 07:27:44;;;;;;;8.70;3.35;;;;;;;;;;5068315;28;20065;-26
2022/04/06 07:30:11;;;;;;;8.40;3.38;;;;;;;;;;5068348;28;20032;-29
2022/04/06 07:32:37;;;;;;;9.57;4.00;;;;;;;;;;5072416;28;20071;-28
2022/04/06 07:35:04;;;;;;;12.93;4.28;;;;;;;;;;5067471;28;20089;-28
2022/04/06 07:37:37;;;;;;;10.02;4.15;;;;;;;;;;5068314;28;20079;-29
2022/04/06 07:40:04;;;;;;;9.88;4.75;;;;;;;;;;5072591;28;20079;-28
2022/04/06 07:42:30;;;;;;;9.93;5.15;;;;;;;;;;5071494;28;20514;-28
2022/04/06 07:44:56;;;;;;;8.20;4.68;;;;;;;;;;5067554;28;20032;-28
2022/04/06 07:47:22;;;;;;;12.95;5.22;;;;;;;;;;5063225;28;20464;-27
2022/04/06 07:49:48;;;;;;;12.85;5.55;;;;;;;;;;5070517;28;20064;-27
2022/04/06 07:52:14;;;;;;;10.25;5.53;;;;;;;;;;5070141;28;20036;-28
2022/04/06 07:54:40;;;;;;;14.05;6.38;;;;;;;;;;5064711;28;20081;-27
2022/04/06 07:57:06;;;;;;;10.75;5.72;;;;;;;;;;5071378;28;20043;-27
2022/04/06 07:59:32;;;;;;;13.55;6.32;;;;;;;;;;5070669;28;20032;-28
2022/04/06 08:01:58;;;;;;;11.50;6.43;;;;;;;;;;5065564;28;20047;-28
2022/04/06 08:04:25;;;;;;;11.70;6.90;;;;;;;;;;5069915;28;20036;-28
2022/04/06 08:06:51;;;;;;;13.57;6.80;;;;;;;;;;5068634;28;20033;-31
2022/04/06 08:09:17;;;;;;;11.57;7.13;;;;;;;;;;5071289;28;20034;-30
2022/04/06 08:11:43;;;;;;;12.60;7.18;;;;;;;;;;5070803;28;20112;-31
2022/04/06 08:14:09;;;;;;;12.80;8.00;;;;;;;;;;5061328;28;20102;-33
2022/04/06 08:16:35;;;;;;;14.80;8.15;;;;;;;;;;5066829;28;20093;-34
2022/04/06 08:22:23;;;;;;;14.18;8.02;;;;;;;;;;5065805;28;20063;-32
2022/04/06 08:24:49;;;;;;;15.30;7.55;;;;;;;;;;5067286;28;20514;-34
2022/04/06 08:27:22;;;;;;;14.40;8.32;;;;;;;;;;5069717;28;20086;-32
2022/04/06 08:29:48;;;;;;;12.00;7.90;;;;;;;;;;5064681;28;20048;-32
2022/04/06 08:32:14;;;;;;;14.23;8.50;;;;;;;;;;5064854;28;20036;-33
2022/04/06 08:34:40;;;;;;;15.23;8.40;;;;;;;;;;5063512;28;20036;-33
2022/04/06 08:37:08;;;;;;;16.20;7.93;;;;;;;;;;5064777;28;20037;-32
2022/04/06 08:39:39;;;;;;;11.90;8.35;;;;;;;;;;5066012;28;20048;-28
2022/04/06 08:42:06;;;;;;;15.07;8.57;;;;;;;;;;5054873;28;20037;-28
2022/04/06 08:44:32;;;;;;;14.60;8.88;;;;;;;;;;5069508;28;20036;-27
2022/04/06 08:47:03;;;;;;;16.08;9.15;;;;;;;;;;5063615;28;20052;-26
2022/04/06 08:49:30;;;;;;;16.95;8.63;;;;;;;;;;5072841;28;20047;-27
2022/04/06 08:51:56;;;;;;;12.20;8.70;;;;;;;;;;5070986;28;20059;-28
2022/04/06 08:54:26;;;;;;;11.23;7.75;;;;;;;;;;5070427;28;20036;-27
2022/04/06 08:56:52;;;;;;;13.10;7.97;;;;;;;;;;5053373;28;20479;-27
2022/04/06 08:59:18;;;;;;;16.45;7.97;;;;;;;;;;5057564;28;20033;-27
2022/04/06 09:01:44;;;;;;;14.18;7.55;;;;;;;;;;5062023;28;20075;-27
2022/04/06 09:04:10;;;;;;;15.82;7.22;;;;;;;;;;5063998;28;20478;-26
2022/04/06 09:06:40;;;;;;;9.13;7.55;;;;;;;;;;5066174;28;20044;-26
2022/04/06 09:09:08;;;;;;;14.30;7.03;;;;;;;;;;5063044;28;20037;-27
2022/04/06 09:11:41;;;;;;;11.10;6.70;;;;;;;;;;5061680;28;20540;-29
2022/04/06 09:14:07;;;;;;;9.35;6.63;;;;;;;;;;5060575;28;20036;-27
2022/04/06 09:16:34;;;;;;;10.23;5.95;;;;;;;;;;5065716;28;20102;-27
2022/04/06 09:19:09;;;;;;;10.93;6.57;;;;;;;;;;5064195;28;20055;-28
2022/04/06 09:21:48;;;;;;;7.93;6.35;;;;;;;;;;5063822;28;20040;-28
2022/04/06 09:24:18;;;;;;;14.68;6.65;;;;;;;;;;5060197;28;20040;-28
2022/04/06 09:26:44;;;;;;;10.98;5.50;;;;;;;;;;5065568;28;20033;-28
2022/04/06 09:29:13;;;;;;;10.98;4.78;;;;;;;;;;5063592;28;20456;-27
2022/04/06 09:31:40;;;;;;;10.15;5.55;;;;;;;;;;5064868;28;20033;-27
2022/04/06 09:34:10;;;;;;;8.00;5.47;;;;;;;;;;5065286;28;20120;-27
2022/04/06 09:36:38;;;;;;;7.45;5.53;;;;;;;;;;5071729;28;20040;-28
2022/04/06 09:39:05;;;;;;;8.95;4.97;;;;;;;;;;5057126;28;20037;-28
2022/04/06 09:41:31;;;;;;;8.43;5.22;;;;;;;;;;5061349;28;20090;-28
2022/04/06 09:44:07;;;;;;;9.20;5.40;;;;;;;;;;5057683;28;20044;-31
2022/04/06 09:49:19;;;;;;;10.45;4.88;;;;;;;;;;5053026;28;20060;-28
2022/04/06 09:51:46;;;;;;;10.85;4.32;;;;;;;;;;5052431;28;20041;-29
2022/04/06 09:54:14;;;;;;;7.80;4.72;;;;;;;;;;5051656;28;20036;-27
2022/04/06 09:56:41;;;;;;;10.25;5.28;;;;;;;;;;5052502;28;20510;-27
2022/04/06 09:59:08;;;;;;;8.25;7.45;;;;;;;;;;5052342;28;20461;-29
2022/04/06 10:01:36;;;;;;;8.73;5.53;;;;;;;;;;5050984;28;20121;-28
2022/04/06 10:04:12;;;;;;;6.78;4.60;;;;;;;;;;5052157;28;20087;-28
2022/04/06 10:06:40;;;;;;;9.95;5.95;;;;;;;;;;5052246;28;20070;-29
2022/04/06 10:09:07;;;;;;;8.32;6.22;;;;;;;;;;5051623;28;20041;-28
2022/04/06 10:11:34;;;;;;;10.60;5.13;;;;;;;;;;5051771;28;20394;-27
2022/04/06 10:14:02;;;;;;;6.78;5.88;;;;;;;;;;5051450;28;20049;-27
2022/04/06 10:16:29;;;;;;;9.85;5.50;;;;;;;;;;5051475;28;20045;-28
2022/04/06 10:18:56;;;;;;;13.63;6.07;;;;;;;;;;5051880;28;20048;-28
2022/04/06 10:21:31;;;;;;;8.85;6.55;;;;;;;;;;5051766;28;20037;-29
2022/04/06 10:24:13;;;;;;;9.40;6.43;;;;;;;;;;5051593;28;20552;-27
2022/04/06 10:26:45;;;;;;;11.82;6.38;;;;;;;;;;5051126;28;20467;-28
2022/04/06 10:29:11;;;;;;;8.40;6.38;;;;;;;;;;5051403;28;20135;-28
2022/04/06 10:31:37;;;;;;;10.20;5.32;;;;;;;;;;5051656;28;20164;-28
2022/04/06 10:34:22;;;;;;;8.68;6.45;;;;;;;;;;5051665;28;20040;-29
2022/04/06 10:37:07;;;;;;;11.57;6.03;;;;;;;;;;5050099;28;20045;-28
2022/04/06 10:39:43;;;;;;;7.63;6.25;;;;;;;;;;5051155;28;20041;-28
2022/04/06 10:42:13;;;;;;;9.30;6.38;;;;;;;;;;5051385;28;20088;-28
2022/04/06 10:44:40;;;;;;;9.90;6.03;;;;;;;;;;5049897;28;20088;-28
2022/04/06 10:47:13;;;;;;;9.02;6.07;;;;;;;;;;5051443;28;20045;-28
2022/04/06 10:49:41;;;;;;;10.40;6.47;;;;;;;;;;5052032;28;20396;-31
2022/04/06 10:52:26;;;;;;;7.93;6.25;;;;;;;;;;5050196;28;20040;-29
2022/04/06 10:54:52;;;;;;;8.50;6.30;;;;;;;;;;5051828;28;20064;-28
2022/04/06 10:57:19;;;;;;;9.00;7.22;;;;;;;;;;5051177;28;20076;-28
2022/04/06 11:00:05;;;;;;;7.85;6.45;;;;;;;;;;5051153;28;20041;-29
2022/04/06 11:02:34;;;;;;;10.70;7.03;;;;;;;;;;5051121;28;20041;-28
2022/04/06 11:05:02;;;;;;;9.90;7.53;;;;;;;;;;5053258;28;20166;-30
2022/04/06 11:10:22;;;;;;;12.90;6.88;;;;;;;;;;5054161;28;20056;-29
2022/04/06 11:13:02;;;;;;;13.20;7.53;;;;;;;;;;5054835;28;20052;-28
2022/04/06 11:15:37;;;;;;;10.45;7.60;;;;;;;;;;5055030;28;20076;-28
2022/04/06 11:18:04;;;;;;;13.50;7.28;;;;;;;;;;5054789;28;20060;-29
2022/04/06 11:20:31;;;;;;;11.73;7.82;;;;;;;;;;5054598;28;20142;-29
2022/04/06 11:22:59;;;;;;;12.77;6.72;;;;;;;;;;5055168;28;20047;-29
2022/04/06 11:25:30;;;;;;;12.63;8.13;;;;;;;;;;5055268;28;20068;-29
2022/04/06 11:28:06;;;;;;;14.60;8.90;;;;;;;;;;5054759;28;20067;-30
2022/04/06 11:30:34;;;;;;;10.82;7.25;;;;;;;;;;5054996;28;20037;-28
2022/04/06 11:33:02;;;;;;;14.73;9.18;;;;;;;;;;5054499;28;20120;-31
2022/04/06 11:35:30;;;;;;;13.93;9.40;;;;;;;;;;5054753;28;20398;-28
2022/04/06 11:37:57;;;;;;;10.73;8.43;;;;;;;;;;5054596;28;20045;-28
2022/04/06 11:40:24;;;;;;;13.57;9.20;;;;;;;;;;5054501;28;20483;-28
2022/04/06 11:42:51;;;;;;;13.38;8.30;;;;;;;;;;5053283;28;20132;-32
2022/04/06 11:45:23;;;;;;;12.05;9.00;;;;;;;;;;5057492;28;20040;-31
2022/04/06 11:47:55;;;;;;;12.20;8.25;;;;;;;;;;5066162;28;20044;-31
2022/04/06 11:50:22;;;;;;;14.75;9.52;;;;;;;;;;5065213;28;20043;-33
2022/04/06 11:52:48;;;;;;;13.18;8.05;;;;;;;;;;5071282;28;20054;-30
2022/04/06 11:55:15;;;;;;;11.43;7.93;;;;;;;;;;5072253;28;20047;-31
2022/04/06 11:57:45;;;;;;;10.45;7.68;;;;;;;;;;5057705;28;20041;-31
2022/04/06 12:00:13;;;;;;;10.73;7.95;;;;;;;;;;5061832;28;20037;-32
2022/04/06 12:02:55;;;;;;;10.73;7.53;;;;;;;;;;5063563;28;20040;-32
2022/04/06 12:05:22;;;;;;;10.30;8.02;;;;;;;;;;5071005;28;20115;-33
2022/04/06 12:07:49;;;;;;;12.05;7.88;;;;;;;;;;5072136;28;20036;-32
2022/04/06 12:10:16;;;;;;;9.98;8.00;;;;;;;;;;5067773;28;20033;-31
2022/04/06 12:12:42;;;;;;;12.88;8.40;;;;;;;;;;5067498;28;20094;-31
2022/04/06 12:15:09;;;;;;;10.77;7.30;;;;;;;;;;5074426;28;20037;-32
2022/04/06 12:17:36;;;;;;;12.63;8.30;;;;;;;;;;5061575;28;20040;-30
2022/04/06 12:20:04;;;;;;;11.32;8.27;;;;;;;;;;5070365;28;20485;-31
2022/04/06 12:22:31;;;;;;;15.25;9.45;;;;;;;;;;5064153;28;21442;-28
2022/04/06 12:24:57;;;;;;;9.13;8.15;;;;;;;;;;5066967;28;20487;-33
2022/04/06 12:27:30;;;;;;;11.32;8.93;;;;;;;;;;5073896;28;20044;-28
2022/04/06 12:30:06;;;;;;;8.88;7.90;;;;;;;;;;5074112;28;20522;-32
2022/04/06 12:32:48;;;;;;;11.07;8.02;;;;;;;;;;5056817;28;20079;-28
2022/04/06 12:35:25;;;;;;;13.27;8.40;;;;;;;;;;5054318;28;20047;-33
2022/04/06 12:37:52;;;;;;;11.00;8.32;;;;;;;;;;5063114;28;20487;-31
2022/04/06 12:40:24;;;;;;;11.95;8.60;;;;;;;;;;5067517;28;20124;-29
2022/04/06 12:42:51;;;;;;;10.48;8.52;;;;;;;;;;5058578;28;20048;-31
2022/04/06 12:45:19;;;;;;;12.40;9.00;;;;;;;;;;5065366;28;20049;-28
2022/04/06 12:47:48;;;;;;;11.10;8.20;;;;;;;;;;5070863;28;20071;-30
2022/04/06 12:50:21;;;;;;;10.48;8.23;;;;;;;;;;5068837;28;20178;-30
2022/04/06 12:53:12;;;;;;;9.68;7.40;;;;;;;;;;5067946;28;20036;-30
2022/04/06 12:55:40;;;;;;;9.02;8.13;;;;;;;;;;5075370;28;20516;-31
2022/04/06 12:58:33;;;;;;;10.13;8.95;;;;;;;;;;5072357;28;20080;-28
2022/04/06 13:00:59;;;;;;;12.70;8.52;;;;;;;;;;5070522;28;20082;-28
2022/04/06 13:03:26;;;;;;;11.38;9.00;;;;;;;;;;5073590;28;20093;-28
2022/04/06 13:05:53;;;;;;;10.90;8.15;;;;;;;;;;5073659;28;20502;-28
2022/04/06 13:08:22;;;;;;;10.88;8.93;;;;;;;;;;5072358;28;20048;-28
2022/04/06 13:10:48;;;;;;;12.80;8.05;;;;;;;;;;5072765;28;20050;-29
2022/04/06 13:13:14;;;;;;;11.55;8.32;;;;;;;;;;5073856;28;20041;-28
2022/04/06 13:15:40;;;;;;;11.82;8.82;;;;;;;;;;5073584;28;20421;-29
2022/04/06 13:18:07;;;;;;;12.25;8.32;;;;;;;;;;5073993;28;20041;-28
2022/04/06 13:20:34;;;;;;;9.65;8.25;;;;;;;;;;5073778;28;20116;-29
2022/04/06 13:23:00;;;;;;;10.73;8.20;;;;;;;;;;5073734;28;20566;-30
2022/04/06 13:25:26;;;;;;;9.73;7.68;;;;;;;;;;5072669;28;20040;-28
2022/04/06 13:27:52;;;;;;;10.02;7.85;;;;;;;;;;5072468;28;20131;-30
2022/04/06 13:30:19;;;;;;;10.10;8.60;;;;;;;;;;5089027;28;20429;-30
2022/04/06 13:32:46;;;;;;;12.65;8.70;;;;;;;;;;5072856;28;20086;-28
2022/04/06 13:35:13;;;;;;;10.68;7.75;;;;;;;;;;5073120;28;20054;-29
2022/04/06 13:37:43;;;;;;;11.90;8.88;;;;;;;;;;5071906;28;20505;-28
2022/04/06 13:40:10;;;;;;;11.10;8.40;;;;;;;;;;5071497;28;20049;-29
2022/04/06 13:42:37;;;;;;;10.93;8.75;;;;;;;;;;5089234;28;20037;-28
2022/04/06 13:45:05;;;;;;;9.88;8.80;;;;;;;;;;5073272;28;20040;-27
2022/04/06 13:47:31;;;;;;;12.90;9.68;;;;;;;;;;5071111;28;20052;-29
2022/04/06 13:49:57;;;;;;;11.48;8.73;;;;;;;;;;5071774;28;20494;-28
2022/04/06 13:52:24;;;;;;;10.40;9.30;;;;;;;;;;5072561;28;20123;-28
2022/04/06 13:54:52;;;;;;;11.02;8.25;;;;;;;;;;5072895;28;20033;-27
2022/04/06 13:57:18;;;;;;;12.82;8.63;;;;;;;;;;5072496;28;20048;-29
2022/04/06 13:59:44;;;;;;;9.60;8.63;;;;;;;;;;5072751;28;20190;-29
2022/04/06 14:02:12;;;;;;;12.45;7.90;;;;;;;;;;5071535;28;20051;-29
2022/04/06 14:04:38;;;;;;;11.20;9.02;;;;;;;;;;5073145;28;20591;-27
2022/04/06 14:07:05;;;;;;;13.95;9.90;;;;;;;;;;5072831;28;20052;-27
2022/04/06 14:09:32;;;;;;;10.65;8.93;;;;;;;;;;5072292;28;20089;-29
2022/04/06 14:11:58;;;;;;;12.15;9.77;;;;;;;;;;5072269;28;20044;-29
2022/04/06 14:14:24;;;;;;;10.57;8.68;;;;;;;;;;5072763;28;20509;-28
2022/04/06 14:16:51;;;;;;;11.55;9.75;;;;;;;;;;5072598;28;20036;-28
2022/04/06 14:19:18;;;;;;;10.77;9.45;;;;;;;;;;5072758;28;20118;-31
2022/04/06 14:21:45;;;;;;;11.55;9.23;;;;;;;;;;5072453;28;20059;-28
2022/04/06 14:24:12;;;;;;;10.40;9.23;;;;;;;;;;5072515;28;20379;-28
2022/04/06 14:26:40;;;;;;;9.73;8.20;;;;;;;;;;5072520;28;20044;-28
2022/04/06 14:29:06;;;;;;;10.75;8.38;;;;;;;;;;5072502;28;20077;-30
2022/04/06 14:31:32;;;;;;;9.27;8.35;;;;;;;;;;5072790;28;20074;-29
2022/04/06 14:33:59;;;;;;;10.63;9.23;;;;;;;;;;5072592;28;20036;-27
2022/04/06 14:36:25;;;;;;;10.45;9.35;;;;;;;;;;5072875;28;20123;-30
2022/04/06 14:38:51;;;;;;;14.00;8.73;;;;;;;;;;5072482;28;20051;-29
2022/04/06 14:41:17;;;;;;;12.63;9.82;;;;;;;;;;5071926;28;20048;-29
2022/04/06 14:43:44;;;;;;;11.38;8.25;;;;;;;;;;5072349;28;20140;-29